sensor_id;sensor_type;location;lat;lon;timestamp;P1;durP1;ratioP1;P2;durP2;ratioP2
12665;SDS011;58531;59.050;17.416;2022-08-19T00:02:15;25.47;;;21.83;;
12665;SDS011;58531;59.050;17.416;2022-08-19T00:04:42;26.47;;;21.10;;
12665;SDS011;58531;59.050;17.416;2022-08-19T00:07:11;24.60;;;21.67;;
12665;SDS011;58531;59.050;17.416;2022-08-19T00:09:38;25.03;;;20.23;;
12665;SDS011;58531;59.050;17.416;2022-08-19T00:12:04;23.90;;;21.40;;
12665;SDS011;58531;59.050;17.416;2022-08-19T00:14:33;23.30;;;20.53;;
12665;SDS011;58531;59.050;17.416;2022-08-19T00:17:00;24.10;;;21.63;;
12665;SDS011;58531;59.050;17.416;2022-08-19T00:19:28;22.93;;;20.63;;
12665;SDS011;58531;59.050;17.416;2022-08-19T00:21:55;23.70;;;21.30;;
12665;SDS011;58531;59.050;17.416;2022-08-19T00:24:21;24.20;;;21.27;;
12665;SDS011;58531;59.050;17.416;2022-08-19T00:26:48;26.83;;;22.93;;
12665;SDS011;58531;59.050;17.416;2022-08-19T00:29:16;24.07;;;21.33;;
12665;SDS011;58531;59.050;17.416;2022-08-19T00:31:47;23.37;;;20.87;;
12665;SDS011;58531;59.050;17.416;2022-08-19T00:34:15;24.50;;;21.83;;
12665;SDS011;58531;59.050;17.416;2022-08-19T00:36:42;24.13;;;21.60;;
12665;SDS011;58531;59.050;17.416;2022-08-19T00:39:09;24.13;;;21.63;;
12665;SDS011;58531;59.050;17.416;2022-08-19T00:41:36;29.10;;;21.17;;
12665;SDS011;58531;59.050;17.416;2022-08-19T00:44:04;25.93;;;23.10;;
12665;SDS011;58531;59.050;17.416;2022-08-19T00:46:33;24.00;;;21.50;;
12665;SDS011;58531;59.050;17.416;2022-08-19T00:49:05;25.07;;;22.50;;
12665;SDS011;58531;59.050;17.416;2022-08-19T00:51:37;26.43;;;23.13;;
12665;SDS011;58531;59.050;17.416;2022-08-19T00:54:04;27.37;;;23.40;;
12665;SDS011;58531;59.050;17.416;2022-08-19T00:56:31;28.07;;;23.83;;
12665;SDS011;58531;59.050;17.416;2022-08-19T00:58:59;28.27;;;22.57;;
12665;SDS011;58531;59.050;17.416;2022-08-19T01:01:26;27.97;;;24.40;;
12665;SDS011;58531;59.050;17.416;2022-08-19T01:03:53;25.63;;;23.00;;
12665;SDS011;58531;59.050;17.416;2022-08-19T01:06:21;26.67;;;23.30;;
12665;SDS011;58531;59.050;17.416;2022-08-19T01:08:48;28.67;;;23.63;;
12665;SDS011;58531;59.050;17.416;2022-08-19T01:11:15;27.67;;;24.17;;
12665;SDS011;58531;59.050;17.416;2022-08-19T01:13:42;29.17;;;24.30;;
12665;SDS011;58531;59.050;17.416;2022-08-19T01:16:11;26.13;;;23.40;;
12665;SDS011;58531;59.050;17.416;2022-08-19T01:18:41;28.60;;;23.57;;
12665;SDS011;58531;59.050;17.416;2022-08-19T01:21:10;28.83;;;24.03;;
12665;SDS011;58531;59.050;17.416;2022-08-19T01:23:44;31.60;;;24.37;;
12665;SDS011;58531;59.050;17.416;2022-08-19T01:26:13;29.53;;;24.53;;
12665;SDS011;58531;59.050;17.416;2022-08-19T01:28:43;26.23;;;23.43;;
12665;SDS011;58531;59.050;17.416;2022-08-19T01:31:12;29.50;;;24.53;;
12665;SDS011;58531;59.050;17.416;2022-08-19T01:33:41;29.67;;;24.47;;
12665;SDS011;58531;59.050;17.416;2022-08-19T01:36:10;28.47;;;23.47;;
12665;SDS011;58531;59.050;17.416;2022-08-19T01:38:40;27.00;;;24.20;;
12665;SDS011;58531;59.050;17.416;2022-08-19T01:41:11;26.87;;;23.93;;
12665;SDS011;58531;59.050;17.416;2022-08-19T01:43:38;28.73;;;23.50;;
12665;SDS011;58531;59.050;17.416;2022-08-19T01:46:06;29.03;;;24.07;;
12665;SDS011;58531;59.050;17.416;2022-08-19T01:48:33;28.20;;;24.20;;
12665;SDS011;58531;59.050;17.416;2022-08-19T01:51:02;29.53;;;24.93;;
12665;SDS011;58531;59.050;17.416;2022-08-19T01:53:29;26.87;;;24.00;;
12665;SDS011;58531;59.050;17.416;2022-08-19T01:55:56;24.90;;;22.30;;
12665;SDS011;58531;59.050;17.416;2022-08-19T01:58:26;28.03;;;23.97;;
12665;SDS011;58531;59.050;17.416;2022-08-19T02:00:57;29.50;;;24.63;;
12665;SDS011;58531;59.050;17.416;2022-08-19T02:03:24;29.37;;;24.20;;
12665;SDS011;58531;59.050;17.416;2022-08-19T02:05:53;27.53;;;23.87;;
12665;SDS011;58531;59.050;17.416;2022-08-19T02:08:22;26.53;;;23.73;;
12665;SDS011;58531;59.050;17.416;2022-08-19T02:10:49;28.87;;;25.00;;
12665;SDS011;58531;59.050;17.416;2022-08-19T02:13:16;27.27;;;23.10;;
12665;SDS011;58531;59.050;17.416;2022-08-19T02:15:44;27.37;;;24.37;;
12665;SDS011;58531;59.050;17.416;2022-08-19T02:18:11;32.57;;;25.73;;
12665;SDS011;58531;59.050;17.416;2022-08-19T02:20:38;28.37;;;24.20;;
12665;SDS011;58531;59.050;17.416;2022-08-19T02:23:07;30.77;;;24.83;;
12665;SDS011;58531;59.050;17.416;2022-08-19T02:25:34;29.43;;;25.63;;
12665;SDS011;58531;59.050;17.416;2022-08-19T02:28:00;29.37;;;25.13;;
12665;SDS011;58531;59.050;17.416;2022-08-19T02:30:27;25.77;;;22.83;;
12665;SDS011;58531;59.050;17.416;2022-08-19T02:32:56;32.73;;;25.83;;
12665;SDS011;58531;59.050;17.416;2022-08-19T02:35:23;30.10;;;25.33;;
12665;SDS011;58531;59.050;17.416;2022-08-19T02:37:50;30.03;;;24.70;;
12665;SDS011;58531;59.050;17.416;2022-08-19T02:40:34;36.20;;;25.37;;
12665;SDS011;58531;59.050;17.416;2022-08-19T02:43:01;37.30;;;26.73;;
12665;SDS011;58531;59.050;17.416;2022-08-19T02:45:31;37.50;;;26.87;;
12665;SDS011;58531;59.050;17.416;2022-08-19T02:48:00;30.17;;;23.67;;
12665;SDS011;58531;59.050;17.416;2022-08-19T02:50:27;35.03;;;26.60;;
12665;SDS011;58531;59.050;17.416;2022-08-19T02:52:54;32.63;;;25.60;;
12665;SDS011;58531;59.050;17.416;2022-08-19T02:55:21;28.13;;;24.67;;
12665;SDS011;58531;59.050;17.416;2022-08-19T02:57:48;30.57;;;25.13;;
12665;SDS011;58531;59.050;17.416;2022-08-19T03:00:15;28.87;;;25.23;;
12665;SDS011;58531;59.050;17.416;2022-08-19T03:02:42;27.17;;;23.57;;
12665;SDS011;58531;59.050;17.416;2022-08-19T03:05:10;28.00;;;23.17;;
12665;SDS011;58531;59.050;17.416;2022-08-19T03:07:37;31.40;;;25.00;;
12665;SDS011;58531;59.050;17.416;2022-08-19T03:10:05;28.40;;;24.70;;
12665;SDS011;58531;59.050;17.416;2022-08-19T03:12:34;28.63;;;24.43;;
12665;SDS011;58531;59.050;17.416;2022-08-19T03:15:02;30.00;;;25.90;;
12665;SDS011;58531;59.050;17.416;2022-08-19T03:17:31;27.30;;;23.50;;
12665;SDS011;58531;59.050;17.416;2022-08-19T03:19:58;29.10;;;25.13;;
12665;SDS011;58531;59.050;17.416;2022-08-19T03:22:26;29.73;;;25.50;;
12665;SDS011;58531;59.050;17.416;2022-08-19T03:24:52;31.13;;;25.27;;
12665;SDS011;58531;59.050;17.416;2022-08-19T03:27:19;32.80;;;25.87;;
12665;SDS011;58531;59.050;17.416;2022-08-19T03:29:46;30.93;;;25.07;;
12665;SDS011;58531;59.050;17.416;2022-08-19T03:32:13;39.93;;;25.63;;
12665;SDS011;58531;59.050;17.416;2022-08-19T03:34:39;32.83;;;25.63;;
12665;SDS011;58531;59.050;17.416;2022-08-19T03:37:07;36.83;;;26.20;;
12665;SDS011;58531;59.050;17.416;2022-08-19T03:39:37;31.57;;;26.77;;
12665;SDS011;58531;59.050;17.416;2022-08-19T03:42:05;31.77;;;25.40;;
12665;SDS011;58531;59.050;17.416;2022-08-19T03:44:32;30.70;;;24.43;;
12665;SDS011;58531;59.050;17.416;2022-08-19T03:47:01;34.47;;;26.10;;
12665;SDS011;58531;59.050;17.416;2022-08-19T03:49:29;30.77;;;25.50;;
12665;SDS011;58531;59.050;17.416;2022-08-19T03:51:58;38.70;;;26.30;;
12665;SDS011;58531;59.050;17.416;2022-08-19T03:54:26;35.67;;;27.17;;
12665;SDS011;58531;59.050;17.416;2022-08-19T03:56:55;32.70;;;26.60;;
12665;SDS011;58531;59.050;17.416;2022-08-19T03:59:24;34.93;;;26.33;;
12665;SDS011;58531;59.050;17.416;2022-08-19T04:01:52;36.87;;;26.50;;
12665;SDS011;58531;59.050;17.416;2022-08-19T04:04:19;32.13;;;25.20;;
12665;SDS011;58531;59.050;17.416;2022-08-19T04:06:46;37.87;;;26.47;;
12665;SDS011;58531;59.050;17.416;2022-08-19T04:09:13;34.73;;;26.50;;
12665;SDS011;58531;59.050;17.416;2022-08-19T04:11:41;28.90;;;25.37;;
12665;SDS011;58531;59.050;17.416;2022-08-19T04:14:13;29.23;;;24.03;;
12665;SDS011;58531;59.050;17.416;2022-08-19T04:16:42;28.17;;;23.50;;
12665;SDS011;58531;59.050;17.416;2022-08-19T04:19:09;28.30;;;22.97;;
12665;SDS011;58531;59.050;17.416;2022-08-19T04:21:37;31.33;;;23.13;;
12665;SDS011;58531;59.050;17.416;2022-08-19T04:24:06;41.13;;;23.60;;
12665;SDS011;58531;59.050;17.416;2022-08-19T04:26:35;32.43;;;24.67;;
12665;SDS011;58531;59.050;17.416;2022-08-19T04:29:05;28.47;;;22.97;;
12665;SDS011;58531;59.050;17.416;2022-08-19T04:31:34;35.57;;;23.60;;
12665;SDS011;58531;59.050;17.416;2022-08-19T04:34:02;28.70;;;24.37;;
12665;SDS011;58531;59.050;17.416;2022-08-19T04:36:31;32.77;;;23.73;;
12665;SDS011;58531;59.050;17.416;2022-08-19T04:39:02;33.87;;;23.97;;
12665;SDS011;58531;59.050;17.416;2022-08-19T04:41:32;27.93;;;23.63;;
12665;SDS011;58531;59.050;17.416;2022-08-19T04:44:17;47.93;;;22.27;;
12665;SDS011;58531;59.050;17.416;2022-08-19T04:46:46;59.07;;;21.40;;
12665;SDS011;58531;59.050;17.416;2022-08-19T04:49:14;71.87;;;21.37;;
12665;SDS011;58531;59.050;17.416;2022-08-19T04:51:43;25.67;;;21.23;;
12665;SDS011;58531;59.050;17.416;2022-08-19T04:54:12;77.97;;;20.13;;
12665;SDS011;58531;59.050;17.416;2022-08-19T04:56:40;39.33;;;21.60;;
12665;SDS011;58531;59.050;17.416;2022-08-19T04:59:07;61.57;;;21.80;;
12665;SDS011;58531;59.050;17.416;2022-08-19T05:01:35;28.10;;;21.07;;
12665;SDS011;58531;59.050;17.416;2022-08-19T05:04:05;27.10;;;22.03;;
12665;SDS011;58531;59.050;17.416;2022-08-19T05:06:33;38.67;;;20.97;;
12665;SDS011;58531;59.050;17.416;2022-08-19T05:09:01;32.23;;;21.03;;
12665;SDS011;58531;59.050;17.416;2022-08-19T05:11:29;31.03;;;20.23;;
12665;SDS011;58531;59.050;17.416;2022-08-19T05:13:57;25.83;;;21.00;;
12665;SDS011;58531;59.050;17.416;2022-08-19T05:16:26;23.67;;;19.40;;
12665;SDS011;58531;59.050;17.416;2022-08-19T05:18:53;27.10;;;20.70;;
12665;SDS011;58531;59.050;17.416;2022-08-19T05:21:40;26.13;;;20.57;;
12665;SDS011;58531;59.050;17.416;2022-08-19T05:24:25;27.23;;;22.23;;
12665;SDS011;58531;59.050;17.416;2022-08-19T05:26:52;27.73;;;21.50;;
12665;SDS011;58531;59.050;17.416;2022-08-19T05:29:22;25.60;;;22.23;;
12665;SDS011;58531;59.050;17.416;2022-08-19T05:31:51;29.50;;;23.27;;
12665;SDS011;58531;59.050;17.416;2022-08-19T05:34:20;25.70;;;20.27;;
12665;SDS011;58531;59.050;17.416;2022-08-19T05:36:51;21.20;;;18.90;;
12665;SDS011;58531;59.050;17.416;2022-08-19T05:39:22;21.77;;;18.07;;
12665;SDS011;58531;59.050;17.416;2022-08-19T05:41:51;19.17;;;17.10;;
12665;SDS011;58531;59.050;17.416;2022-08-19T05:44:23;21.23;;;17.80;;
12665;SDS011;58531;59.050;17.416;2022-08-19T05:46:51;18.60;;;16.70;;
12665;SDS011;58531;59.050;17.416;2022-08-19T05:49:19;19.37;;;17.40;;
12665;SDS011;58531;59.050;17.416;2022-08-19T05:51:47;23.50;;;17.53;;
12665;SDS011;58531;59.050;17.416;2022-08-19T05:54:16;22.50;;;17.67;;
12665;SDS011;58531;59.050;17.416;2022-08-19T05:56:44;25.90;;;18.60;;
12665;SDS011;58531;59.050;17.416;2022-08-19T05:59:12;20.40;;;18.37;;
12665;SDS011;58531;59.050;17.416;2022-08-19T06:01:41;20.43;;;17.87;;
12665;SDS011;58531;59.050;17.416;2022-08-19T06:04:09;19.60;;;17.50;;
12665;SDS011;58531;59.050;17.416;2022-08-19T06:06:36;21.13;;;18.70;;
12665;SDS011;58531;59.050;17.416;2022-08-19T06:09:03;20.13;;;17.93;;
12665;SDS011;58531;59.050;17.416;2022-08-19T06:11:33;18.60;;;16.73;;
12665;SDS011;58531;59.050;17.416;2022-08-19T06:14:02;17.73;;;15.93;;
12665;SDS011;58531;59.050;17.416;2022-08-19T06:16:33;18.00;;;16.20;;
12665;SDS011;58531;59.050;17.416;2022-08-19T06:19:00;19.03;;;17.10;;
12665;SDS011;58531;59.050;17.416;2022-08-19T06:21:29;18.97;;;17.07;;
12665;SDS011;58531;59.050;17.416;2022-08-19T06:23:56;18.57;;;16.60;;
12665;SDS011;58531;59.050;17.416;2022-08-19T06:26:24;17.07;;;15.37;;
12665;SDS011;58531;59.050;17.416;2022-08-19T06:28:52;17.33;;;15.60;;
12665;SDS011;58531;59.050;17.416;2022-08-19T06:31:21;18.73;;;16.97;;
12665;SDS011;58531;59.050;17.416;2022-08-19T06:33:49;16.87;;;15.17;;
12665;SDS011;58531;59.050;17.416;2022-08-19T06:36:17;18.40;;;16.60;;
12665;SDS011;58531;59.050;17.416;2022-08-19T06:38:45;19.17;;;17.33;;
12665;SDS011;58531;59.050;17.416;2022-08-19T06:41:12;20.37;;;18.27;;
12665;SDS011;58531;59.050;17.416;2022-08-19T06:43:39;16.50;;;14.97;;
12665;SDS011;58531;59.050;17.416;2022-08-19T06:46:13;24.07;;;21.60;;
12665;SDS011;58531;59.050;17.416;2022-08-19T06:48:41;20.80;;;18.87;;
12665;SDS011;58531;59.050;17.416;2022-08-19T06:51:08;15.80;;;14.40;;
12665;SDS011;58531;59.050;17.416;2022-08-19T06:53:35;19.27;;;17.50;;
12665;SDS011;58531;59.050;17.416;2022-08-19T06:56:02;12.90;;;11.70;;
12665;SDS011;58531;59.050;17.416;2022-08-19T06:58:29;13.17;;;12.03;;
12665;SDS011;58531;59.050;17.416;2022-08-19T07:00:58;13.17;;;11.97;;
12665;SDS011;58531;59.050;17.416;2022-08-19T07:03:29;14.37;;;13.17;;
12665;SDS011;58531;59.050;17.416;2022-08-19T07:05:57;13.63;;;12.33;;
12665;SDS011;58531;59.050;17.416;2022-08-19T07:08:24;12.83;;;11.63;;
12665;SDS011;58531;59.050;17.416;2022-08-19T07:10:52;12.43;;;11.23;;
12665;SDS011;58531;59.050;17.416;2022-08-19T07:13:19;12.27;;;11.17;;
12665;SDS011;58531;59.050;17.416;2022-08-19T07:15:47;11.40;;;10.27;;
12665;SDS011;58531;59.050;17.416;2022-08-19T07:18:15;11.10;;;10.10;;
12665;SDS011;58531;59.050;17.416;2022-08-19T07:20:44;11.10;;;10.20;;
12665;SDS011;58531;59.050;17.416;2022-08-19T07:23:11;10.53;;;9.53;;
12665;SDS011;58531;59.050;17.416;2022-08-19T07:25:38;10.80;;;9.80;;
12665;SDS011;58531;59.050;17.416;2022-08-19T07:28:05;11.10;;;10.17;;
12665;SDS011;58531;59.050;17.416;2022-08-19T07:30:35;10.97;;;9.97;;
12665;SDS011;58531;59.050;17.416;2022-08-19T07:33:03;9.50;;;8.80;;
12665;SDS011;58531;59.050;17.416;2022-08-19T07:35:30;9.77;;;8.87;;
12665;SDS011;58531;59.050;17.416;2022-08-19T07:40:29;9.43;;;8.70;;
12665;SDS011;58531;59.050;17.416;2022-08-19T07:42:56;9.93;;;9.03;;
12665;SDS011;58531;59.050;17.416;2022-08-19T07:45:26;10.10;;;9.10;;
12665;SDS011;58531;59.050;17.416;2022-08-19T07:47:53;16.37;;;14.70;;
12665;SDS011;58531;59.050;17.416;2022-08-19T07:50:20;11.30;;;9.23;;
12665;SDS011;58531;59.050;17.416;2022-08-19T07:52:47;9.30;;;8.47;;
12665;SDS011;58531;59.050;17.416;2022-08-19T07:55:18;9.00;;;8.20;;
12665;SDS011;58531;59.050;17.416;2022-08-19T07:57:49;19.70;;;17.97;;
12665;SDS011;58531;59.050;17.416;2022-08-19T08:00:17;9.80;;;8.90;;
12665;SDS011;58531;59.050;17.416;2022-08-19T08:02:45;14.07;;;12.83;;
12665;SDS011;58531;59.050;17.416;2022-08-19T08:05:12;9.03;;;8.13;;
12665;SDS011;58531;59.050;17.416;2022-08-19T08:07:56;10.13;;;9.00;;
12665;SDS011;58531;59.050;17.416;2022-08-19T08:10:42;9.37;;;8.53;;
12665;SDS011;58531;59.050;17.416;2022-08-19T08:13:08;10.93;;;9.80;;
12665;SDS011;58531;59.050;17.416;2022-08-19T08:15:35;9.00;;;8.20;;
12665;SDS011;58531;59.050;17.416;2022-08-19T08:18:04;9.17;;;8.27;;
12665;SDS011;58531;59.050;17.416;2022-08-19T08:20:31;9.37;;;8.50;;
12665;SDS011;58531;59.050;17.416;2022-08-19T08:22:58;9.80;;;8.80;;
12665;SDS011;58531;59.050;17.416;2022-08-19T08:25:43;11.07;;;9.13;;
12665;SDS011;58531;59.050;17.416;2022-08-19T08:28:10;10.77;;;8.00;;
12665;SDS011;58531;59.050;17.416;2022-08-19T08:30:36;9.60;;;8.60;;
12665;SDS011;58531;59.050;17.416;2022-08-19T08:33:06;9.80;;;8.37;;
12665;SDS011;58531;59.050;17.416;2022-08-19T08:35:33;8.20;;;7.40;;
12665;SDS011;58531;59.050;17.416;2022-08-19T08:37:59;9.07;;;8.17;;
12665;SDS011;58531;59.050;17.416;2022-08-19T08:40:30;8.53;;;7.77;;
12665;SDS011;58531;59.050;17.416;2022-08-19T08:43:09;9.37;;;8.17;;
12665;SDS011;58531;59.050;17.416;2022-08-19T08:45:44;10.03;;;8.73;;
12665;SDS011;58531;59.050;17.416;2022-08-19T08:48:17;10.87;;;8.43;;
12665;SDS011;58531;59.050;17.416;2022-08-19T08:50:46;11.97;;;9.03;;
12665;SDS011;58531;59.050;17.416;2022-08-19T08:53:18;8.73;;;7.93;;
12665;SDS011;58531;59.050;17.416;2022-08-19T08:55:46;9.90;;;8.40;;
12665;SDS011;58531;59.050;17.416;2022-08-19T08:58:16;8.17;;;7.47;;
12665;SDS011;58531;59.050;17.416;2022-08-19T09:00:48;10.33;;;9.33;;
12665;SDS011;58531;59.050;17.416;2022-08-19T09:03:17;8.23;;;7.40;;
12665;SDS011;58531;59.050;17.416;2022-08-19T09:05:48;11.33;;;10.10;;
12665;SDS011;58531;59.050;17.416;2022-08-19T09:08:26;10.37;;;7.80;;
12665;SDS011;58531;59.050;17.416;2022-08-19T09:11:03;9.27;;;6.87;;
12665;SDS011;58531;59.050;17.416;2022-08-19T09:13:35;9.37;;;7.47;;
12665;SDS011;58531;59.050;17.416;2022-08-19T09:16:12;9.20;;;8.27;;
12665;SDS011;58531;59.050;17.416;2022-08-19T09:18:42;9.23;;;7.83;;
12665;SDS011;58531;59.050;17.416;2022-08-19T09:21:11;12.43;;;11.23;;
12665;SDS011;58531;59.050;17.416;2022-08-19T09:23:38;12.77;;;11.67;;
12665;SDS011;58531;59.050;17.416;2022-08-19T09:26:08;8.53;;;7.43;;
12665;SDS011;58531;59.050;17.416;2022-08-19T09:28:39;8.50;;;7.70;;
12665;SDS011;58531;59.050;17.416;2022-08-19T09:31:08;7.70;;;6.67;;
12665;SDS011;58531;59.050;17.416;2022-08-19T09:33:35;10.30;;;6.90;;
12665;SDS011;58531;59.050;17.416;2022-08-19T09:36:03;11.20;;;7.63;;
12665;SDS011;58531;59.050;17.416;2022-08-19T09:38:32;9.40;;;8.43;;
12665;SDS011;58531;59.050;17.416;2022-08-19T09:41:02;8.83;;;8.03;;
12665;SDS011;58531;59.050;17.416;2022-08-19T09:43:29;10.87;;;7.30;;
12665;SDS011;58531;59.050;17.416;2022-08-19T09:45:57;7.93;;;6.50;;
12665;SDS011;58531;59.050;17.416;2022-08-19T09:48:25;9.40;;;8.00;;
12665;SDS011;58531;59.050;17.416;2022-08-19T09:50:52;10.30;;;6.40;;
12665;SDS011;58531;59.050;17.416;2022-08-19T09:53:18;13.13;;;11.83;;
12665;SDS011;58531;59.050;17.416;2022-08-19T09:55:48;17.77;;;16.17;;
12665;SDS011;58531;59.050;17.416;2022-08-19T09:58:15;8.87;;;8.07;;
12665;SDS011;58531;59.050;17.416;2022-08-19T10:00:41;7.13;;;5.53;;
12665;SDS011;58531;59.050;17.416;2022-08-19T10:03:09;10.50;;;7.50;;
12665;SDS011;58531;59.050;17.416;2022-08-19T10:05:36;7.43;;;5.70;;
12665;SDS011;58531;59.050;17.416;2022-08-19T10:08:15;9.70;;;8.70;;
12665;SDS011;58531;59.050;17.416;2022-08-19T10:10:44;7.63;;;6.73;;
12665;SDS011;58531;59.050;17.416;2022-08-19T10:13:12;9.90;;;5.47;;
12665;SDS011;58531;59.050;17.416;2022-08-19T10:15:41;6.20;;;5.47;;
12665;SDS011;58531;59.050;17.416;2022-08-19T10:18:08;8.67;;;7.87;;
12665;SDS011;58531;59.050;17.416;2022-08-19T10:20:36;6.63;;;5.00;;
12665;SDS011;58531;59.050;17.416;2022-08-19T10:23:02;9.87;;;7.17;;
12665;SDS011;58531;59.050;17.416;2022-08-19T10:25:29;5.60;;;5.00;;
12665;SDS011;58531;59.050;17.416;2022-08-19T10:27:58;8.37;;;6.43;;
12665;SDS011;58531;59.050;17.416;2022-08-19T10:30:25;6.37;;;5.87;;
12665;SDS011;58531;59.050;17.416;2022-08-19T10:32:52;5.70;;;5.20;;
12665;SDS011;58531;59.050;17.416;2022-08-19T10:35:20;5.93;;;5.20;;
12665;SDS011;58531;59.050;17.416;2022-08-19T10:37:47;6.57;;;4.93;;
12665;SDS011;58531;59.050;17.416;2022-08-19T10:40:14;5.67;;;5.03;;
12665;SDS011;58531;59.050;17.416;2022-08-19T10:42:41;8.27;;;5.33;;
12665;SDS011;58531;59.050;17.416;2022-08-19T10:45:08;6.10;;;5.30;;
12665;SDS011;58531;59.050;17.416;2022-08-19T10:47:36;7.03;;;5.87;;
12665;SDS011;58531;59.050;17.416;2022-08-19T10:50:03;5.80;;;5.20;;
12665;SDS011;58531;59.050;17.416;2022-08-19T10:52:49;6.83;;;5.50;;
12665;SDS011;58531;59.050;17.416;2022-08-19T10:55:16;7.97;;;5.00;;
12665;SDS011;58531;59.050;17.416;2022-08-19T10:58:02;6.93;;;5.13;;
12665;SDS011;58531;59.050;17.416;2022-08-19T11:00:29;7.13;;;4.97;;
12665;SDS011;58531;59.050;17.416;2022-08-19T11:02:57;6.93;;;5.97;;
12665;SDS011;58531;59.050;17.416;2022-08-19T11:05:24;6.40;;;5.50;;
12665;SDS011;58531;59.050;17.416;2022-08-19T11:07:52;6.27;;;5.03;;
12665;SDS011;58531;59.050;17.416;2022-08-19T11:10:19;6.17;;;5.40;;
12665;SDS011;58531;59.050;17.416;2022-08-19T11:12:46;5.97;;;4.83;;
12665;SDS011;58531;59.050;17.416;2022-08-19T11:15:13;7.57;;;4.97;;
12665;SDS011;58531;59.050;17.416;2022-08-19T11:17:40;5.93;;;4.83;;
12665;SDS011;58531;59.050;17.416;2022-08-19T11:20:09;5.40;;;4.47;;
12665;SDS011;58531;59.050;17.416;2022-08-19T11:22:37;10.73;;;5.10;;
12665;SDS011;58531;59.050;17.416;2022-08-19T11:25:07;5.40;;;4.63;;
12665;SDS011;58531;59.050;17.416;2022-08-19T11:27:37;5.90;;;4.83;;
12665;SDS011;58531;59.050;17.416;2022-08-19T11:30:07;5.37;;;4.87;;
12665;SDS011;58531;59.050;17.416;2022-08-19T11:32:36;6.23;;;5.43;;
12665;SDS011;58531;59.050;17.416;2022-08-19T11:35:02;8.17;;;4.87;;
12665;SDS011;58531;59.050;17.416;2022-08-19T11:37:30;5.17;;;4.67;;
12665;SDS011;58531;59.050;17.416;2022-08-19T11:39:56;5.63;;;5.00;;
12665;SDS011;58531;59.050;17.416;2022-08-19T11:42:24;6.53;;;4.53;;
12665;SDS011;58531;59.050;17.416;2022-08-19T11:45:09;5.47;;;4.80;;
12665;SDS011;58531;59.050;17.416;2022-08-19T11:47:38;5.67;;;4.97;;
12665;SDS011;58531;59.050;17.416;2022-08-19T11:50:05;6.30;;;5.00;;
12665;SDS011;58531;59.050;17.416;2022-08-19T11:52:32;6.13;;;4.83;;
12665;SDS011;58531;59.050;17.416;2022-08-19T11:54:59;7.93;;;4.80;;
12665;SDS011;58531;59.050;17.416;2022-08-19T11:57:28;4.93;;;4.53;;
12665;SDS011;58531;59.050;17.416;2022-08-19T11:59:55;6.93;;;4.40;;
12665;SDS011;58531;59.050;17.416;2022-08-19T12:02:21;7.63;;;4.67;;
12665;SDS011;58531;59.050;17.416;2022-08-19T12:04:48;6.43;;;5.17;;
12665;SDS011;58531;59.050;17.416;2022-08-19T12:07:15;6.20;;;4.67;;
12665;SDS011;58531;59.050;17.416;2022-08-19T12:09:42;7.20;;;5.00;;
12665;SDS011;58531;59.050;17.416;2022-08-19T12:12:09;5.40;;;4.87;;
12665;SDS011;58531;59.050;17.416;2022-08-19T12:14:37;5.77;;;4.53;;
12665;SDS011;58531;59.050;17.416;2022-08-19T12:17:04;7.10;;;4.60;;
12665;SDS011;58531;59.050;17.416;2022-08-19T12:19:32;6.47;;;4.33;;
12665;SDS011;58531;59.050;17.416;2022-08-19T12:22:00;5.73;;;4.43;;
12665;SDS011;58531;59.050;17.416;2022-08-19T12:24:30;5.33;;;4.80;;
12665;SDS011;58531;59.050;17.416;2022-08-19T12:26:57;5.87;;;4.73;;
12665;SDS011;58531;59.050;17.416;2022-08-19T12:29:26;6.93;;;4.80;;
12665;SDS011;58531;59.050;17.416;2022-08-19T12:31:56;5.70;;;5.17;;
12665;SDS011;58531;59.050;17.416;2022-08-19T12:34:27;6.20;;;4.87;;
12665;SDS011;58531;59.050;17.416;2022-08-19T12:36:56;8.67;;;4.93;;
12665;SDS011;58531;59.050;17.416;2022-08-19T12:39:23;6.43;;;4.70;;
12665;SDS011;58531;59.050;17.416;2022-08-19T12:41:50;5.73;;;5.20;;
12665;SDS011;58531;59.050;17.416;2022-08-19T12:44:16;6.67;;;4.97;;
12665;SDS011;58531;59.050;17.416;2022-08-19T12:46:43;5.23;;;4.73;;
12665;SDS011;58531;59.050;17.416;2022-08-19T12:49:11;6.63;;;5.03;;
12665;SDS011;58531;59.050;17.416;2022-08-19T12:51:38;7.10;;;4.83;;
12665;SDS011;58531;59.050;17.416;2022-08-19T12:54:04;6.60;;;4.80;;
12665;SDS011;58531;59.050;17.416;2022-08-19T12:56:31;6.70;;;4.67;;
12665;SDS011;58531;59.050;17.416;2022-08-19T12:59:00;6.27;;;4.90;;
12665;SDS011;58531;59.050;17.416;2022-08-19T13:01:27;10.10;;;5.73;;
12665;SDS011;58531;59.050;17.416;2022-08-19T13:03:57;6.17;;;5.10;;
12665;SDS011;58531;59.050;17.416;2022-08-19T13:06:25;9.60;;;6.03;;
12665;SDS011;58531;59.050;17.416;2022-08-19T13:08:53;7.77;;;5.53;;
12665;SDS011;58531;59.050;17.416;2022-08-19T13:11:20;10.90;;;5.57;;
12665;SDS011;58531;59.050;17.416;2022-08-19T13:13:50;9.93;;;8.93;;
12665;SDS011;58531;59.050;17.416;2022-08-19T13:16:20;5.63;;;5.20;;
12665;SDS011;58531;59.050;17.416;2022-08-19T13:18:47;10.23;;;7.73;;
12665;SDS011;58531;59.050;17.416;2022-08-19T13:21:17;10.57;;;6.67;;
12665;SDS011;58531;59.050;17.416;2022-08-19T13:23:47;8.47;;;6.57;;
12665;SDS011;58531;59.050;17.416;2022-08-19T13:26:14;5.97;;;5.33;;
12665;SDS011;58531;59.050;17.416;2022-08-19T13:28:41;8.30;;;5.27;;
12665;SDS011;58531;59.050;17.416;2022-08-19T13:31:29;7.40;;;5.50;;
12665;SDS011;58531;59.050;17.416;2022-08-19T13:34:15;9.40;;;6.97;;
12665;SDS011;58531;59.050;17.416;2022-08-19T13:36:44;12.47;;;6.37;;
12665;SDS011;58531;59.050;17.416;2022-08-19T13:39:12;10.00;;;4.93;;
12665;SDS011;58531;59.050;17.416;2022-08-19T13:41:42;7.03;;;5.03;;
12665;SDS011;58531;59.050;17.416;2022-08-19T13:44:12;7.47;;;6.57;;
12665;SDS011;58531;59.050;17.416;2022-08-19T13:46:40;6.80;;;6.13;;
12665;SDS011;58531;59.050;17.416;2022-08-19T13:49:09;5.83;;;5.00;;
12665;SDS011;58531;59.050;17.416;2022-08-19T13:51:37;7.20;;;5.37;;
12665;SDS011;58531;59.050;17.416;2022-08-19T13:54:05;7.10;;;5.03;;
12665;SDS011;58531;59.050;17.416;2022-08-19T13:56:33;5.80;;;5.13;;
12665;SDS011;58531;59.050;17.416;2022-08-19T13:59:01;5.93;;;5.23;;
12665;SDS011;58531;59.050;17.416;2022-08-19T14:01:28;7.47;;;5.60;;
12665;SDS011;58531;59.050;17.416;2022-08-19T14:03:55;7.70;;;5.17;;
12665;SDS011;58531;59.050;17.416;2022-08-19T14:06:22;6.93;;;5.93;;
12665;SDS011;58531;59.050;17.416;2022-08-19T14:08:50;7.37;;;6.00;;
12665;SDS011;58531;59.050;17.416;2022-08-19T14:11:17;6.00;;;5.37;;
12665;SDS011;58531;59.050;17.416;2022-08-19T14:13:46;7.63;;;5.30;;
12665;SDS011;58531;59.050;17.416;2022-08-19T14:16:13;9.13;;;5.10;;
12665;SDS011;58531;59.050;17.416;2022-08-19T14:18:40;7.43;;;5.60;;
12665;SDS011;58531;59.050;17.416;2022-08-19T14:21:07;6.30;;;5.33;;
12665;SDS011;58531;59.050;17.416;2022-08-19T14:23:40;10.43;;;5.43;;
12665;SDS011;58531;59.050;17.416;2022-08-19T14:26:07;8.40;;;5.77;;
12665;SDS011;58531;59.050;17.416;2022-08-19T14:28:35;7.73;;;5.77;;
12665;SDS011;58531;59.050;17.416;2022-08-19T14:31:03;8.23;;;5.90;;